Time;durP1;ratioP1;P1;durP2;ratioP2;P2;SDS_P1;SDS_P2;PMS_P1;PMS_P2;Temp;Humidity;BMP_temperature;BMP_pressure;BME280_temperature;BME280_humidity;BME280_pressure;Samples;Min_cycle;Max_cycle;Signal;HPM_P1;HPM_P2
2023/06/11 00:01:53;;;;;;;3.07;2.67;;;;;;;;;;5097273;28;20450;-59
2023/06/11 00:04:24;;;;;;;4.83;3.57;;;;;;;;;;5097203;28;20456;-59
2023/06/11 00:06:53;;;;;;;3.93;2.97;;;;;;;;;;5096958;28;20562;-59
2023/06/11 00:09:20;;;;;;;3.07;2.87;;;;;;;;;;5097200;28;20461;-58
2023/06/11 00:11:47;;;;;;;7.13;3.00;;;;;;;;;;5097111;28;20464;-59
2023/06/11 00:14:14;;;;;;;3.53;3.20;;;;;;;;;;5097063;28;20455;-59
2023/06/11 00:16:43;;;;;;;5.50;2.40;;;;;;;;;;5096911;28;20472;-59
2023/06/11 00:19:10;;;;;;;5.67;3.03;;;;;;;;;;5096839;28;20798;-59
2023/06/11 00:21:40;;;;;;;3.23;2.93;;;;;;;;;;5097064;28;20874;-59
2023/06/11 00:24:09;;;;;;;4.27;2.80;;;;;;;;;;5097047;28;20454;-59
2023/06/11 00:26:35;;;;;;;2.90;2.70;;;;;;;;;;5096811;28;20529;-59
2023/06/11 00:29:03;;;;;;;3.83;2.70;;;;;;;;;;5096831;28;20483;-59
2023/06/11 00:31:30;;;;;;;4.63;2.80;;;;;;;;;;5096618;28;20453;-59
2023/06/11 00:33:56;;;;;;;3.50;2.70;;;;;;;;;;5096464;28;20791;-59
2023/06/11 00:36:26;;;;;;;6.20;2.70;;;;;;;;;;5096622;28;20540;-59
2023/06/11 00:38:53;;;;;;;2.80;2.60;;;;;;;;;;5096622;28;20480;-59
2023/06/11 00:41:26;;;;;;;2.37;2.20;;;;;;;;;;5096569;28;20544;-59
2023/06/11 00:43:54;;;;;;;2.87;2.67;;;;;;;;;;5096480;28;20489;-59
2023/06/11 00:46:21;;;;;;;5.00;2.30;;;;;;;;;;5096230;28;20465;-59
2023/06/11 00:48:48;;;;;;;3.00;2.80;;;;;;;;;;5096577;28;20449;-59
2023/06/11 00:51:16;;;;;;;2.97;2.73;;;;;;;;;;5096367;28;20577;-59
2023/06/11 00:53:43;;;;;;;3.03;2.40;;;;;;;;;;5096285;28;20453;-59
2023/06/11 00:56:11;;;;;;;2.80;2.60;;;;;;;;;;5096066;28;20560;-59
2023/06/11 00:58:39;;;;;;;3.40;2.83;;;;;;;;;;5096245;28;20887;-59
2023/06/11 01:01:07;;;;;;;7.97;2.80;;;;;;;;;;5096002;28;20451;-59
2023/06/11 01:03:34;;;;;;;3.10;2.80;;;;;;;;;;5096152;28;20449;-59
2023/06/11 01:06:04;;;;;;;2.60;2.40;;;;;;;;;;5096084;28;20576;-59
2023/06/11 01:08:33;;;;;;;3.17;2.20;;;;;;;;;;5095939;28;20484;-59
2023/06/11 01:11:01;;;;;;;4.90;3.20;;;;;;;;;;5095356;28;20502;-59
2023/06/11 01:13:28;;;;;;;6.77;3.00;;;;;;;;;;5095717;28;20758;-59
2023/06/11 01:15:59;;;;;;;4.83;2.80;;;;;;;;;;5096005;28;20449;-59
2023/06/11 01:18:28;;;;;;;2.50;2.30;;;;;;;;;;5095585;28;20951;-59
2023/06/11 01:20:58;;;;;;;4.33;2.53;;;;;;;;;;5095685;28;20460;-58
2023/06/11 01:23:31;;;;;;;3.93;2.83;;;;;;;;;;5095578;28;20446;-59
2023/06/11 01:26:09;;;;;;;5.03;3.10;;;;;;;;;;5095459;28;20429;-59
2023/06/11 01:28:38;;;;;;;3.80;2.63;;;;;;;;;;5095550;28;20522;-59
2023/06/11 01:31:07;;;;;;;4.07;2.93;;;;;;;;;;5095724;28;20539;-59
2023/06/11 01:33:35;;;;;;;5.90;2.60;;;;;;;;;;5095532;28;20418;-59
2023/06/11 01:36:05;;;;;;;3.43;1.97;;;;;;;;;;5095295;28;20457;-59
2023/06/11 01:38:34;;;;;;;8.03;2.60;;;;;;;;;;5095261;28;20453;-59
2023/06/11 01:41:01;;;;;;;5.33;2.63;;;;;;;;;;5095338;28;20508;-60
2023/06/11 01:43:29;;;;;;;2.80;2.40;;;;;;;;;;5095394;28;20479;-59
2023/06/11 01:45:58;;;;;;;2.57;2.37;;;;;;;;;;5095160;28;20448;-59
2023/06/11 01:48:25;;;;;;;6.63;3.27;;;;;;;;;;5095041;28;20480;-59
2023/06/11 01:50:52;;;;;;;4.63;2.40;;;;;;;;;;5095197;28;20540;-59
2023/06/11 01:53:19;;;;;;;4.60;2.53;;;;;;;;;;5095146;28;20423;-59
2023/06/11 01:55:46;;;;;;;5.67;2.30;;;;;;;;;;5095015;28;20478;-59
2023/06/11 01:58:16;;;;;;;2.50;2.30;;;;;;;;;;5094909;28;20536;-59
2023/06/11 02:00:43;;;;;;;2.80;2.40;;;;;;;;;;5094740;28;20460;-59
2023/06/11 02:03:12;;;;;;;3.40;2.30;;;;;;;;;;5094773;28;20811;-59
2023/06/11 02:05:39;;;;;;;2.87;2.53;;;;;;;;;;5094660;28;20540;-59
2023/06/11 02:08:06;;;;;;;3.87;2.60;;;;;;;;;;5094817;28;20488;-60
2023/06/11 02:10:33;;;;;;;4.80;2.93;;;;;;;;;;5094731;28;20453;-59
2023/06/11 02:13:00;;;;;;;2.83;2.50;;;;;;;;;;5094649;28;20449;-59
2023/06/11 02:15:27;;;;;;;6.33;2.60;;;;;;;;;;5094562;28;20448;-59
2023/06/11 02:17:54;;;;;;;3.80;2.67;;;;;;;;;;5094422;28;20455;-60
2023/06/11 02:20:22;;;;;;;2.77;2.50;;;;;;;;;;5094334;28;20944;-59
2023/06/11 02:22:49;;;;;;;3.20;2.10;;;;;;;;;;5093875;28;20559;-59
2023/06/11 02:25:15;;;;;;;2.80;2.00;;;;;;;;;;5094469;28;20451;-59
2023/06/11 02:27:42;;;;;;;2.70;2.30;;;;;;;;;;5094192;28;20479;-59
2023/06/11 02:30:10;;;;;;;8.27;2.90;;;;;;;;;;5094198;28;21003;-59
2023/06/11 02:32:37;;;;;;;8.80;2.50;;;;;;;;;;5094074;28;20518;-59
2023/06/11 02:35:03;;;;;;;7.43;2.60;;;;;;;;;;5094334;28;20909;-59
2023/06/11 02:37:32;;;;;;;7.77;2.43;;;;;;;;;;5094402;28;20539;-59
2023/06/11 02:39:59;;;;;;;4.03;2.47;;;;;;;;;;5094166;28;20453;-59
2023/06/11 02:42:25;;;;;;;2.93;2.73;;;;;;;;;;5094073;28;20426;-59
2023/06/11 02:44:52;;;;;;;4.77;2.70;;;;;;;;;;5093947;28;20456;-59
2023/06/11 02:47:19;;;;;;;4.43;2.97;;;;;;;;;;5093718;28;20484;-59
2023/06/11 02:49:46;;;;;;;2.63;2.33;;;;;;;;;;5093970;28;20517;-59
2023/06/11 02:52:13;;;;;;;4.87;2.07;;;;;;;;;;5094204;28;20919;-59
2023/06/11 02:54:41;;;;;;;2.57;2.37;;;;;;;;;;5093769;28;20603;-59
2023/06/11 02:57:08;;;;;;;2.97;2.63;;;;;;;;;;5093741;28;20576;-59
2023/06/11 02:59:35;;;;;;;4.13;2.40;;;;;;;;;;5093632;28;20948;-59
2023/06/11 03:02:02;;;;;;;2.60;1.97;;;;;;;;;;5093645;28;20453;-59
2023/06/11 03:04:29;;;;;;;2.53;2.33;;;;;;;;;;5093790;28;20525;-59
2023/06/11 03:06:56;;;;;;;4.90;2.83;;;;;;;;;;5093558;28;20439;-59
2023/06/11 03:09:24;;;;;;;4.70;2.70;;;;;;;;;;5093567;28;20453;-59
2023/06/11 03:11:52;;;;;;;7.03;2.83;;;;;;;;;;5093746;28;20452;-59
2023/06/11 03:14:20;;;;;;;5.10;2.27;;;;;;;;;;5093348;28;20448;-59
2023/06/11 03:16:47;;;;;;;2.43;2.23;;;;;;;;;;5093549;28;20456;-59
2023/06/11 03:19:14;;;;;;;4.40;2.77;;;;;;;;;;5093324;28;20944;-59
2023/06/11 03:21:41;;;;;;;3.73;2.80;;;;;;;;;;5093404;28;20452;-59
2023/06/11 03:24:08;;;;;;;4.47;2.50;;;;;;;;;;5093346;28;20455;-58
2023/06/11 03:26:35;;;;;;;4.27;2.90;;;;;;;;;;5093214;28;20457;-59
2023/06/11 03:29:03;;;;;;;2.80;2.50;;;;;;;;;;5093389;28;20840;-59
2023/06/11 03:31:30;;;;;;;3.97;2.70;;;;;;;;;;5093363;28;20476;-59
2023/06/11 03:33:57;;;;;;;3.03;2.70;;;;;;;;;;5093204;28;20455;-59
2023/06/11 03:36:25;;;;;;;2.80;2.50;;;;;;;;;;5093144;28;20548;-59
2023/06/11 03:38:52;;;;;;;7.80;3.20;;;;;;;;;;5093175;28;20429;-59
2023/06/11 03:41:19;;;;;;;5.33;2.60;;;;;;;;;;5093015;28;20448;-59
2023/06/11 03:43:46;;;;;;;3.63;2.63;;;;;;;;;;5092973;28;20422;-59
2023/06/11 03:46:14;;;;;;;9.30;2.73;;;;;;;;;;5093072;28;20578;-59
2023/06/11 03:48:41;;;;;;;2.63;2.43;;;;;;;;;;5093076;28;20490;-59
2023/06/11 03:51:08;;;;;;;4.07;2.77;;;;;;;;;;5093089;28;20535;-59
2023/06/11 03:53:35;;;;;;;2.93;2.73;;;;;;;;;;5092920;28;20811;-59
2023/06/11 03:56:02;;;;;;;4.10;2.70;;;;;;;;;;5092547;28;20488;-59
2023/06/11 03:58:29;;;;;;;7.53;2.40;;;;;;;;;;5093078;28;20480;-59
2023/06/11 04:00:56;;;;;;;3.40;2.10;;;;;;;;;;5092970;28;20429;-59
2023/06/11 04:03:24;;;;;;;3.37;2.27;;;;;;;;;;5093133;28;20447;-59
2023/06/11 04:05:51;;;;;;;4.77;2.13;;;;;;;;;;5092826;28;20447;-60
2023/06/11 04:08:18;;;;;;;3.20;2.50;;;;;;;;;;5092638;28;20582;-59
2023/06/11 04:10:45;;;;;;;5.80;2.70;;;;;;;;;;5092686;28;20446;-59
2023/06/11 04:13:12;;;;;;;4.10;2.80;;;;;;;;;;5092923;28;20460;-59
2023/06/11 04:15:39;;;;;;;4.90;2.50;;;;;;;;;;5092980;28;20474;-59
2023/06/11 04:18:05;;;;;;;2.57;2.37;;;;;;;;;;5092721;28;20853;-59
2023/06/11 04:20:34;;;;;;;4.20;2.37;;;;;;;;;;5092939;28;20980;-59
2023/06/11 04:23:01;;;;;;;3.03;2.40;;;;;;;;;;5092643;28;20425;-59
2023/06/11 04:25:31;;;;;;;2.97;2.77;;;;;;;;;;5092557;28;20936;-59
2023/06/11 04:27:58;;;;;;;3.50;3.20;;;;;;;;;;5092671;28;20481;-59
2023/06/11 04:30:26;;;;;;;4.23;2.30;;;;;;;;;;5092720;28;20451;-59
2023/06/11 04:32:54;;;;;;;3.83;2.43;;;;;;;;;;5092852;28;20534;-59
2023/06/11 04:35:22;;;;;;;4.80;2.63;;;;;;;;;;5092753;28;20452;-59
2023/06/11 04:37:51;;;;;;;2.37;2.13;;;;;;;;;;5092584;28;20560;-59
2023/06/11 04:40:20;;;;;;;3.00;2.37;;;;;;;;;;5092737;28;20521;-59
2023/06/11 04:42:47;;;;;;;2.97;2.50;;;;;;;;;;5092752;28;20455;-59
2023/06/11 04:45:18;;;;;;;3.17;2.27;;;;;;;;;;5094517;28;20922;-59
2023/06/11 04:47:45;;;;;;;6.23;2.80;;;;;;;;;;5096299;28;20468;-59
2023/06/11 04:50:12;;;;;;;3.00;2.30;;;;;;;;;;5096240;28;20853;-59
2023/06/11 04:52:42;;;;;;;2.03;1.93;;;;;;;;;;5096557;28;20447;-59
2023/06/11 04:55:12;;;;;;;6.40;2.40;;;;;;;;;;5096610;28;20500;-59
2023/06/11 04:57:39;;;;;;;2.93;2.20;;;;;;;;;;5096129;28;20426;-59
2023/06/11 05:00:08;;;;;;;10.53;2.40;;;;;;;;;;5096141;28;20892;-59
2023/06/11 05:02:37;;;;;;;3.50;2.30;;;;;;;;;;5095851;28;20482;-59
2023/06/11 05:05:04;;;;;;;2.90;2.30;;;;;;;;;;5096000;28;20511;-59
2023/06/11 05:07:31;;;;;;;2.80;2.50;;;;;;;;;;5095882;28;20510;-59
2023/06/11 05:09:58;;;;;;;2.23;1.80;;;;;;;;;;5095842;28;20452;-59
2023/06/11 05:12:26;;;;;;;3.40;2.60;;;;;;;;;;5095768;28;20877;-59
2023/06/11 05:14:53;;;;;;;3.87;2.00;;;;;;;;;;5095678;28;20448;-59
2023/06/11 05:17:20;;;;;;;6.13;2.37;;;;;;;;;;5095959;28;20452;-59
2023/06/11 05:19:47;;;;;;;10.37;2.57;;;;;;;;;;5095979;28;20452;-59
2023/06/11 05:22:14;;;;;;;3.10;2.80;;;;;;;;;;5095822;28;20532;-59
2023/06/11 05:24:42;;;;;;;2.30;2.10;;;;;;;;;;5095712;28;20489;-59
2023/06/11 05:27:09;;;;;;;3.40;2.40;;;;;;;;;;5095712;28;20434;-59
2023/06/11 05:29:38;;;;;;;2.40;2.20;;;;;;;;;;5095549;28;20477;-59
2023/06/11 05:32:08;;;;;;;2.77;2.23;;;;;;;;;;5095696;28;20459;-59
2023/06/11 05:34:37;;;;;;;4.60;2.60;;;;;;;;;;5095969;28;20459;-59
2023/06/11 05:37:04;;;;;;;5.83;2.60;;;;;;;;;;5095452;28;20485;-59
2023/06/11 05:39:31;;;;;;;3.83;2.50;;;;;;;;;;5095360;28;20956;-59
2023/06/11 05:41:58;;;;;;;4.97;2.60;;;;;;;;;;5095401;28;20449;-59
2023/06/11 05:44:25;;;;;;;6.17;2.70;;;;;;;;;;5095169;28;20521;-59
2023/06/11 05:46:53;;;;;;;3.70;2.10;;;;;;;;;;5095373;28;20492;-59
2023/06/11 05:49:20;;;;;;;3.17;2.97;;;;;;;;;;5095268;28;20489;-59
2023/06/11 05:51:47;;;;;;;3.20;2.63;;;;;;;;;;5095272;28;20448;-59
2023/06/11 05:54:14;;;;;;;2.67;2.47;;;;;;;;;;5095057;28;20446;-59
2023/06/11 05:56:41;;;;;;;9.90;3.00;;;;;;;;;;5094625;28;20471;-59
2023/06/11 05:59:08;;;;;;;2.73;2.33;;;;;;;;;;5094898;28;20454;-59
2023/06/11 06:01:34;;;;;;;5.30;2.40;;;;;;;;;;5095312;28;20472;-59
2023/06/11 06:04:03;;;;;;;5.23;2.80;;;;;;;;;;5095001;28;20886;-59
2023/06/11 06:06:31;;;;;;;5.10;2.60;;;;;;;;;;5094956;28;20814;-59
2023/06/11 06:08:59;;;;;;;2.93;2.50;;;;;;;;;;5094978;28;20481;-59
2023/06/11 06:11:26;;;;;;;6.77;2.83;;;;;;;;;;5094694;28;20449;-59
2023/06/11 06:13:53;;;;;;;3.07;2.70;;;;;;;;;;5094748;28;20957;-59
2023/06/11 06:16:20;;;;;;;4.23;2.80;;;;;;;;;;5094912;28;20480;-59
2023/06/11 06:18:47;;;;;;;3.10;2.17;;;;;;;;;;5095007;28;20453;-59
2023/06/11 06:21:15;;;;;;;3.00;2.80;;;;;;;;;;5094637;28;20489;-59
2023/06/11 06:23:42;;;;;;;3.13;2.83;;;;;;;;;;5094564;28;20928;-59
2023/06/11 06:26:09;;;;;;;3.47;3.27;;;;;;;;;;5094408;28;20450;-59
2023/06/11 06:28:36;;;;;;;6.10;2.50;;;;;;;;;;5094448;28;20477;-59
2023/06/11 06:31:07;;;;;;;3.97;2.60;;;;;;;;;;5094624;28;20883;-59
2023/06/11 06:33:37;;;;;;;3.13;2.83;;;;;;;;;;5094470;28;20477;-59
2023/06/11 06:36:04;;;;;;;3.23;2.97;;;;;;;;;;5094594;28;20851;-59
2023/06/11 06:38:32;;;;;;;7.03;2.67;;;;;;;;;;5094348;28;20871;-59
2023/06/11 06:40:59;;;;;;;5.03;2.67;;;;;;;;;;5094315;28;20541;-59
2023/06/11 06:43:26;;;;;;;3.23;3.03;;;;;;;;;;5094343;28;20496;-59
2023/06/11 06:45:53;;;;;;;4.20;2.90;;;;;;;;;;5094119;28;20913;-59
2023/06/11 06:48:20;;;;;;;4.00;2.90;;;;;;;;;;5094092;28;20474;-59
2023/06/11 06:50:47;;;;;;;6.20;2.77;;;;;;;;;;5093944;28;20553;-60
2023/06/11 06:53:15;;;;;;;3.20;2.83;;;;;;;;;;5094137;28;20446;-59
2023/06/11 06:55:44;;;;;;;3.00;2.80;;;;;;;;;;5094064;28;20482;-59
2023/06/11 06:58:11;;;;;;;3.60;2.60;;;;;;;;;;5093914;28;20452;-59
2023/06/11 07:00:38;;;;;;;3.07;2.77;;;;;;;;;;5093840;28;20541;-59
2023/06/11 07:03:05;;;;;;;4.60;2.80;;;;;;;;;;5093792;28;20719;-59
2023/06/11 07:05:32;;;;;;;4.13;2.63;;;;;;;;;;5093662;28;20933;-59
2023/06/11 07:07:59;;;;;;;5.93;3.40;;;;;;;;;;5093281;28;20604;-59
2023/06/11 07:10:26;;;;;;;3.23;2.73;;;;;;;;;;5093674;28;20479;-59
2023/06/11 07:12:54;;;;;;;2.67;2.47;;;;;;;;;;5093673;28;20453;-59
2023/06/11 07:15:21;;;;;;;3.23;2.60;;;;;;;;;;5093547;28;20447;-59
2023/06/11 07:17:48;;;;;;;4.33;2.80;;;;;;;;;;5093371;28;20854;-59
2023/06/11 07:20:15;;;;;;;5.57;2.80;;;;;;;;;;5093263;28;20541;-59
2023/06/11 07:22:41;;;;;;;3.13;2.83;;;;;;;;;;5093771;28;20547;-60
2023/06/11 07:25:09;;;;;;;2.90;2.70;;;;;;;;;;5093389;28;20527;-59
2023/06/11 07:27:36;;;;;;;2.83;2.63;;;;;;;;;;5093291;28;20537;-59
2023/06/11 07:30:05;;;;;;;3.53;3.00;;;;;;;;;;5093398;28;20606;-59
2023/06/11 07:32:32;;;;;;;4.73;3.30;;;;;;;;;;5093136;28;20935;-59
2023/06/11 07:34:59;;;;;;;4.53;3.53;;;;;;;;;;5093306;28;20443;-59
2023/06/11 07:37:26;;;;;;;3.60;2.90;;;;;;;;;;5093122;28;20450;-59
2023/06/11 07:39:52;;;;;;;4.30;2.90;;;;;;;;;;5093144;28;20462;-59
2023/06/11 07:42:19;;;;;;;3.90;2.87;;;;;;;;;;5093112;28;20542;-59
2023/06/11 07:44:46;;;;;;;3.07;2.80;;;;;;;;;;5092999;28;20447;-60
2023/06/11 07:47:14;;;;;;;3.47;3.17;;;;;;;;;;5093014;28;20450;-59
2023/06/11 07:49:41;;;;;;;3.43;2.83;;;;;;;;;;5093167;28;20518;-59
2023/06/11 07:52:08;;;;;;;9.50;3.50;;;;;;;;;;5093065;28;20905;-57
2023/06/11 07:54:35;;;;;;;3.43;2.83;;;;;;;;;;5092844;28;20447;-58
2023/06/11 07:57:02;;;;;;;3.97;3.50;;;;;;;;;;5092907;28;20456;-58
2023/06/11 07:59:30;;;;;;;4.80;4.23;;;;;;;;;;5092862;28;20796;-58
2023/06/11 08:01:56;;;;;;;2.90;2.70;;;;;;;;;;5093245;28;20451;-58
2023/06/11 08:04:25;;;;;;;4.63;3.40;;;;;;;;;;5092910;28;20545;-58
2023/06/11 08:06:52;;;;;;;5.50;3.63;;;;;;;;;;5093028;28;20462;-58
2023/06/11 08:09:19;;;;;;;3.80;3.00;;;;;;;;;;5092887;28;20474;-58
2023/06/11 08:11:46;;;;;;;3.47;3.20;;;;;;;;;;5092819;28;20543;-59
2023/06/11 08:14:13;;;;;;;4.03;3.53;;;;;;;;;;5092579;28;20536;-58
2023/06/11 08:16:40;;;;;;;4.70;3.33;;;;;;;;;;5093010;28;20455;-58
2023/06/11 08:19:07;;;;;;;2.73;2.53;;;;;;;;;;5092900;28;20953;-58
2023/06/11 08:21:36;;;;;;;3.83;3.53;;;;;;;;;;5096916;28;20451;-58
2023/06/11 08:24:05;;;;;;;3.60;3.30;;;;;;;;;;5096870;28;20451;-58
2023/06/11 08:26:32;;;;;;;4.23;3.70;;;;;;;;;;5096565;28;20879;-57
2023/06/11 08:28:58;;;;;;;4.00;3.60;;;;;;;;;;5096453;28;20517;-58
2023/06/11 08:31:25;;;;;;;5.70;3.70;;;;;;;;;;5096691;28;20541;-58
2023/06/11 08:33:52;;;;;;;3.80;3.50;;;;;;;;;;5096626;28;20458;-58
2023/06/11 08:36:19;;;;;;;5.50;3.40;;;;;;;;;;5096438;28;21045;-58
2023/06/11 08:38:48;;;;;;;5.30;4.00;;;;;;;;;;5096599;28;20450;-59
2023/06/11 08:41:15;;;;;;;7.43;4.10;;;;;;;;;;5096328;28;20447;-59
2023/06/11 08:43:42;;;;;;;3.70;3.20;;;;;;;;;;5096361;28;20443;-59
2023/06/11 08:46:14;;;;;;;4.17;3.77;;;;;;;;;;5096467;28;20537;-59
2023/06/11 08:48:42;;;;;;;4.97;4.53;;;;;;;;;;5096529;28;20447;-58
2023/06/11 08:51:10;;;;;;;4.40;4.00;;;;;;;;;;5096160;28;20538;-60
2023/06/11 08:53:37;;;;;;;4.73;4.43;;;;;;;;;;5096277;28;20961;-58
2023/06/11 08:56:07;;;;;;;3.70;3.50;;;;;;;;;;5095606;28;20574;-59
2023/06/11 08:58:34;;;;;;;3.70;3.37;;;;;;;;;;5096163;28;20493;-59
2023/06/11 09:01:03;;;;;;;10.80;4.50;;;;;;;;;;5096198;28;20451;-59
2023/06/11 09:03:30;;;;;;;6.47;3.60;;;;;;;;;;5095906;28;20457;-58
2023/06/11 09:05:57;;;;;;;4.03;3.27;;;;;;;;;;5095829;28;20447;-58
2023/06/11 09:08:24;;;;;;;5.10;4.03;;;;;;;;;;5095801;28;20443;-58
2023/06/11 09:10:52;;;;;;;4.37;4.00;;;;;;;;;;5095936;28;20481;-58
2023/06/11 09:13:20;;;;;;;5.10;4.70;;;;;;;;;;5095855;28;20482;-58
2023/06/11 09:15:48;;;;;;;5.57;4.70;;;;;;;;;;5095827;28;20545;-59
2023/06/11 09:18:19;;;;;;;5.57;4.50;;;;;;;;;;5095563;28;20450;-58
2023/06/11 09:20:49;;;;;;;5.00;4.50;;;;;;;;;;5095672;28;20447;-59
2023/06/11 09:23:24;;;;;;;4.30;3.97;;;;;;;;;;5095840;28;20866;-58
2023/06/11 09:25:51;;;;;;;4.67;4.37;;;;;;;;;;5095507;28;20454;-58
2023/06/11 09:28:18;;;;;;;4.20;3.90;;;;;;;;;;5095812;28;20538;-58
2023/06/11 09:30:55;;;;;;;8.63;4.03;;;;;;;;;;5094811;28;20482;-58
2023/06/11 09:33:22;;;;;;;4.70;4.30;;;;;;;;;;5095299;28;20821;-59
2023/06/11 09:35:49;;;;;;;5.07;4.67;;;;;;;;;;5095190;28;20543;-58
2023/06/11 09:38:16;;;;;;;4.47;4.17;;;;;;;;;;5095453;28;20492;-58
2023/06/11 09:40:46;;;;;;;4.67;4.27;;;;;;;;;;5095355;28;20454;-58
2023/06/11 09:43:13;;;;;;;7.10;4.40;;;;;;;;;;5095250;28;20478;-58
2023/06/11 09:45:40;;;;;;;6.90;4.80;;;;;;;;;;5095173;28;20447;-58
2023/06/11 09:48:10;;;;;;;4.73;4.30;;;;;;;;;;5094917;28;20439;-58
2023/06/11 09:50:37;;;;;;;4.40;4.10;;;;;;;;;;5094942;28;20482;-59
2023/06/11 09:53:05;;;;;;;5.23;4.73;;;;;;;;;;5095073;28;20802;-58
2023/06/11 09:55:34;;;;;;;4.80;4.30;;;;;;;;;;5094874;28;20574;-58
2023/06/11 09:58:02;;;;;;;8.53;4.90;;;;;;;;;;5094763;28;20524;-59
2023/06/11 10:00:29;;;;;;;4.73;4.33;;;;;;;;;;5094995;28;20447;-58
2023/06/11 10:02:56;;;;;;;5.27;4.30;;;;;;;;;;5094785;28;20449;-59
2023/06/11 10:05:24;;;;;;;7.17;4.70;;;;;;;;;;5094860;28;20462;-58
2023/06/11 10:07:55;;;;;;;10.53;4.17;;;;;;;;;;5094822;28;20840;-58
2023/06/11 10:10:23;;;;;;;4.50;4.10;;;;;;;;;;5094970;28;20549;-58
2023/06/11 10:12:50;;;;;;;5.13;4.50;;;;;;;;;;5094668;28;20534;-58
2023/06/11 10:15:17;;;;;;;6.60;5.17;;;;;;;;;;5094899;28;20461;-58
2023/06/11 10:17:48;;;;;;;4.30;4.00;;;;;;;;;;5094626;28;20813;-58
2023/06/11 10:20:19;;;;;;;10.00;4.63;;;;;;;;;;5094575;28;20458;-58
2023/06/11 10:22:48;;;;;;;4.90;4.43;;;;;;;;;;5094613;28;20450;-58
2023/06/11 10:25:15;;;;;;;5.20;4.70;;;;;;;;;;5094658;28;20465;-60
2023/06/11 10:27:43;;;;;;;5.40;4.90;;;;;;;;;;5094285;28;20474;-58
2023/06/11 10:30:11;;;;;;;6.07;5.53;;;;;;;;;;5094442;28;20830;-58
2023/06/11 10:32:48;;;;;;;7.50;4.83;;;;;;;;;;5094388;28;20943;-58
2023/06/11 10:35:22;;;;;;;5.40;4.90;;;;;;;;;;5094382;28;20466;-58
2023/06/11 10:37:50;;;;;;;6.23;5.63;;;;;;;;;;5094195;28;20786;-58
2023/06/11 10:40:17;;;;;;;7.70;5.00;;;;;;;;;;5094263;28;20696;-58
2023/06/11 10:42:45;;;;;;;4.73;4.40;;;;;;;;;;5093290;28;20451;-58
2023/06/11 10:45:13;;;;;;;5.47;4.97;;;;;;;;;;5094120;28;20451;-58
2023/06/11 10:47:43;;;;;;;4.87;4.57;;;;;;;;;;5094072;28;20451;-58
2023/06/11 10:50:11;;;;;;;5.13;4.73;;;;;;;;;;5093974;28;20485;-58
2023/06/11 10:52:52;;;;;;;5.20;4.90;;;;;;;;;;5093835;28;20464;-58
2023/06/11 10:55:21;;;;;;;6.10;4.97;;;;;;;;;;5093905;28;21037;-58
2023/06/11 10:57:48;;;;;;;5.40;4.80;;;;;;;;;;5093844;28;20447;-58
2023/06/11 11:00:15;;;;;;;7.37;5.73;;;;;;;;;;5093891;28;20443;-58
2023/06/11 11:02:42;;;;;;;6.30;5.17;;;;;;;;;;5093870;28;20877;-58
2023/06/11 11:05:10;;;;;;;5.20;4.90;;;;;;;;;;5093612;28;20534;-58
2023/06/11 11:07:37;;;;;;;4.97;4.60;;;;;;;;;;5093715;28;20807;-58
2023/06/11 11:10:07;;;;;;;5.90;5.40;;;;;;;;;;5093971;28;20876;-58
2023/06/11 11:12:38;;;;;;;5.60;4.90;;;;;;;;;;5093645;28;20534;-58
2023/06/11 11:15:06;;;;;;;6.47;5.97;;;;;;;;;;5093579;28;20455;-58
2023/06/11 11:17:33;;;;;;;6.60;6.00;;;;;;;;;;5093292;28;20447;-58
2023/06/11 11:20:00;;;;;;;6.23;5.63;;;;;;;;;;5093586;28;20450;-58
2023/06/11 11:22:29;;;;;;;5.70;5.30;;;;;;;;;;5093477;28;20950;-58
2023/06/11 11:24:59;;;;;;;5.73;5.33;;;;;;;;;;5093447;28;20458;-58
2023/06/11 11:27:27;;;;;;;6.73;5.73;;;;;;;;;;5093304;28;20544;-59
2023/06/11 11:29:56;;;;;;;6.50;6.10;;;;;;;;;;5093134;28;20502;-58
2023/06/11 11:32:24;;;;;;;6.20;5.80;;;;;;;;;;5093204;28;20530;-58
2023/06/11 11:34:51;;;;;;;6.47;5.97;;;;;;;;;;5093423;28;20447;-58
2023/06/11 11:37:18;;;;;;;5.70;5.40;;;;;;;;;;5093140;28;20453;-58
2023/06/11 11:39:46;;;;;;;8.13;6.17;;;;;;;;;;5093136;28;20453;-58
2023/06/11 11:42:13;;;;;;;6.93;6.33;;;;;;;;;;5093242;28;20504;-58
2023/06/11 11:44:41;;;;;;;6.83;6.33;;;;;;;;;;5093326;28;20451;-58
2023/06/11 11:47:09;;;;;;;6.60;5.93;;;;;;;;;;5093178;28;20450;-58
2023/06/11 11:49:36;;;;;;;6.67;6.27;;;;;;;;;;5093346;28;20451;-59
2023/06/11 11:52:05;;;;;;;6.30;5.70;;;;;;;;;;5093121;28;20810;-58
2023/06/11 11:54:32;;;;;;;6.83;6.33;;;;;;;;;;5092596;28;20453;-58
2023/06/11 11:57:02;;;;;;;7.67;7.10;;;;;;;;;;5092672;28;20996;-58
2023/06/11 11:59:29;;;;;;;7.20;6.50;;;;;;;;;;5092849;28;20934;-58
2023/06/11 12:01:58;;;;;;;6.80;6.40;;;;;;;;;;5093061;28;20494;-59
2023/06/11 12:04:33;;;;;;;6.80;6.40;;;;;;;;;;5093018;28;20447;-58
2023/06/11 12:07:03;;;;;;;6.80;6.30;;;;;;;;;;5092852;28;20472;-58
2023/06/11 12:09:30;;;;;;;7.30;6.80;;;;;;;;;;5092842;28;20462;-58
2023/06/11 12:11:57;;;;;;;6.70;6.10;;;;;;;;;;5092741;28;20493;-58
2023/06/11 12:14:24;;;;;;;7.03;6.00;;;;;;;;;;5092991;28;20539;-59
2023/06/11 12:16:51;;;;;;;7.20;6.50;;;;;;;;;;5092773;28;20451;-58
2023/06/11 12:19:19;;;;;;;6.83;6.33;;;;;;;;;;5092837;28;20447;-59
2023/06/11 12:21:46;;;;;;;7.87;7.27;;;;;;;;;;5092757;28;20946;-58
2023/06/11 12:24:15;;;;;;;7.90;7.30;;;;;;;;;;5092617;28;20446;-59
2023/06/11 12:26:43;;;;;;;6.53;6.13;;;;;;;;;;5092894;28;20451;-59
2023/06/11 12:29:11;;;;;;;7.77;7.17;;;;;;;;;;5092548;28;20459;-58
2023/06/11 12:31:38;;;;;;;7.70;7.10;;;;;;;;;;5092670;28;20642;-58
2023/06/11 12:34:05;;;;;;;6.83;6.23;;;;;;;;;;5092627;28;20772;-58
2023/06/11 12:36:34;;;;;;;7.10;6.50;;;;;;;;;;5092453;28;20583;-58
2023/06/11 12:39:04;;;;;;;6.97;5.53;;;;;;;;;;5092965;28;20451;-58
2023/06/11 12:41:31;;;;;;;7.10;5.30;;;;;;;;;;5092684;28;20451;-59
2023/06/11 12:43:58;;;;;;;7.93;6.80;;;;;;;;;;5092504;28;20723;-58
2023/06/11 12:46:26;;;;;;;8.17;6.10;;;;;;;;;;5092526;28;20961;-58
2023/06/11 12:48:53;;;;;;;6.47;5.90;;;;;;;;;;5092581;28;20451;-58
2023/06/11 12:51:20;;;;;;;6.83;6.23;;;;;;;;;;5092359;28;20510;-59
2023/06/11 12:53:48;;;;;;;6.90;6.40;;;;;;;;;;5092681;28;20538;-58
2023/06/11 12:56:17;;;;;;;6.60;6.20;;;;;;;;;;5092432;28;20561;-58
2023/06/11 12:58:43;;;;;;;7.13;6.03;;;;;;;;;;5092484;28;20869;-58
2023/06/11 13:01:10;;;;;;;6.23;5.73;;;;;;;;;;5092831;28;20457;-58
2023/06/11 13:03:39;;;;;;;9.60;6.40;;;;;;;;;;5092243;28;20872;-58
2023/06/11 13:06:07;;;;;;;6.70;6.10;;;;;;;;;;5094189;28;20447;-58
2023/06/11 13:08:35;;;;;;;6.80;6.10;;;;;;;;;;5096135;28;20447;-58
2023/06/11 13:11:03;;;;;;;8.03;6.00;;;;;;;;;;5095944;28;20555;-58
2023/06/11 13:13:30;;;;;;;6.40;5.80;;;;;;;;;;5095938;28;20492;-58
2023/06/11 13:15:57;;;;;;;7.10;6.50;;;;;;;;;;5095658;28;20450;-58
2023/06/11 13:18:24;;;;;;;11.30;7.67;;;;;;;;;;5095448;28;20934;-58
2023/06/11 13:20:52;;;;;;;7.10;6.40;;;;;;;;;;5095759;28;20451;-58
2023/06/11 13:23:20;;;;;;;6.20;5.70;;;;;;;;;;5095472;28;21003;-58
2023/06/11 13:25:47;;;;;;;6.97;6.47;;;;;;;;;;5095520;28;20447;-57
2023/06/11 13:28:15;;;;;;;7.00;5.80;;;;;;;;;;5095229;28;21006;-57
2023/06/11 13:30:42;;;;;;;6.10;5.80;;;;;;;;;;5095290;28;20505;-57
2023/06/11 13:33:09;;;;;;;6.77;5.70;;;;;;;;;;5095220;28;20447;-57
2023/06/11 13:35:36;;;;;;;6.50;6.00;;;;;;;;;;5095429;28;20454;-57
2023/06/11 13:38:03;;;;;;;6.93;6.47;;;;;;;;;;5095349;28;20450;-57
2023/06/11 13:40:29;;;;;;;5.53;5.23;;;;;;;;;;5095257;28;20457;-57
2023/06/11 13:42:56;;;;;;;6.00;5.57;;;;;;;;;;5095268;28;20457;-57
2023/06/11 13:45:24;;;;;;;8.40;5.90;;;;;;;;;;5095114;28;20858;-58
2023/06/11 13:47:51;;;;;;;8.67;5.53;;;;;;;;;;5094954;28;20797;-57
2023/06/11 13:50:18;;;;;;;7.57;6.87;;;;;;;;;;5095209;28;20447;-58
2023/06/11 13:52:46;;;;;;;6.47;5.90;;;;;;;;;;5095098;28;20455;-58
2023/06/11 13:55:13;;;;;;;6.27;5.77;;;;;;;;;;5094862;28;20470;-58
2023/06/11 13:57:42;;;;;;;5.87;5.37;;;;;;;;;;5094821;28;20435;-58
2023/06/11 14:00:09;;;;;;;5.30;4.90;;;;;;;;;;5094651;28;20455;-58
2023/06/11 14:02:37;;;;;;;6.60;5.43;;;;;;;;;;5095098;28;20451;-58
2023/06/11 14:05:04;;;;;;;5.73;5.40;;;;;;;;;;5095093;28;20479;-59
2023/06/11 14:07:31;;;;;;;5.87;5.40;;;;;;;;;;5094734;28;20458;-58
2023/06/11 14:10:04;;;;;;;5.97;5.57;;;;;;;;;;5094783;28;20543;-58
2023/06/11 14:12:31;;;;;;;5.77;5.27;;;;;;;;;;5094498;28;20478;-58
2023/06/11 14:14:58;;;;;;;5.70;5.23;;;;;;;;;;5094769;28;20576;-59
2023/06/11 14:17:25;;;;;;;6.03;5.63;;;;;;;;;;5094577;28;20447;-59
2023/06/11 14:19:53;;;;;;;6.10;5.30;;;;;;;;;;5094657;28;20538;-58
2023/06/11 14:22:20;;;;;;;6.57;6.13;;;;;;;;;;5094510;28;20862;-59
2023/06/11 14:24:47;;;;;;;6.30;5.70;;;;;;;;;;5094432;28;20451;-58
2023/06/11 14:27:14;;;;;;;6.20;5.27;;;;;;;;;;5094727;28;20896;-59
2023/06/11 14:29:41;;;;;;;6.07;5.67;;;;;;;;;;5094553;28;20447;-58
2023/06/11 14:32:08;;;;;;;5.97;5.47;;;;;;;;;;5094266;28;20686;-58
2023/06/11 14:34:35;;;;;;;6.13;5.50;;;;;;;;;;5094374;28;20447;-58
2023/06/11 14:37:03;;;;;;;8.60;6.23;;;;;;;;;;5094157;28;20542;-58
2023/06/11 14:39:31;;;;;;;5.67;5.13;;;;;;;;;;5094071;28;20451;-60
2023/06/11 14:41:58;;;;;;;6.10;5.43;;;;;;;;;;5094371;28;20905;-58
2023/06/11 14:44:24;;;;;;;8.07;5.20;;;;;;;;;;5094383;28;20443;-59
2023/06/11 14:46:51;;;;;;;5.10;4.80;;;;;;;;;;5094009;28;20442;-58